createdAt,value
2023-05-10T00:01:30.329Z,56.74
2023-05-10T00:03:57.795Z,56.95
2023-05-10T00:06:25.225Z,56.98
2023-05-10T00:08:52.478Z,56.93
2023-05-10T00:11:21.593Z,57.05
2023-05-10T00:13:50.154Z,57.06
2023-05-10T00:16:17.516Z,57.11
2023-05-10T00:18:44.956Z,57.05
2023-05-10T00:21:12.219Z,56.97
2023-05-10T00:23:39.501Z,57.12
2023-05-10T00:26:06.946Z,57.08
2023-05-10T00:28:34.183Z,56.96
2023-05-10T00:31:01.488Z,56.99
2023-05-10T00:33:30.796Z,56.93
2023-05-10T00:35:58.051Z,57.04
2023-05-10T00:38:25.620Z,57.05
2023-05-10T00:40:52.915Z,56.94
2023-05-10T00:43:27.361Z,57.00
2023-05-10T00:45:55.428Z,57.11
2023-05-10T00:48:23.370Z,57.08
2023-05-10T00:50:50.801Z,57.20
2023-05-10T00:53:20.041Z,57.04
2023-05-10T00:55:47.608Z,57.09
2023-05-10T00:58:15.433Z,57.23
2023-05-10T01:00:44.798Z,57.40
2023-05-10T01:03:15.337Z,57.37
2023-05-10T01:05:42.686Z,57.22
2023-05-10T01:08:10.097Z,57.23
2023-05-10T01:10:37.473Z,57.29
2023-05-10T01:13:04.984Z,57.42
2023-05-10T01:15:32.832Z,57.44
2023-05-10T01:18:01.441Z,57.57
2023-05-10T01:20:37.140Z,57.57
2023-05-10T01:23:24.550Z,57.43
2023-05-10T01:26:24.288Z,57.31
2023-05-10T01:29:30.403Z,57.61
2023-05-10T01:32:37.586Z,57.65
2023-05-10T01:35:17.297Z,57.59
2023-05-10T01:37:51.996Z,57.67
2023-05-10T01:40:37.346Z,57.72
2023-05-10T01:43:12.047Z,57.69
2023-05-10T01:46:12.032Z,57.54
2023-05-10T01:48:48.015Z,57.60
2023-05-10T01:51:23.974Z,57.70
2023-05-10T01:53:55.302Z,57.91
2023-05-10T01:56:26.757Z,57.88
2023-05-10T01:58:55.305Z,58.17
2023-05-10T02:01:23.300Z,57.68
2023-05-10T02:03:54.152Z,57.76
2023-05-10T02:06:24.846Z,57.70
2023-05-10T02:08:54.810Z,57.82
2023-05-10T02:11:23.297Z,57.84
2023-05-10T02:13:52.716Z,57.76
2023-05-10T02:16:24.745Z,57.93
2023-05-10T02:18:53.987Z,57.98
2023-05-10T02:21:22.622Z,57.88
2023-05-10T02:23:51.985Z,57.88
2023-05-10T02:26:22.231Z,58.02
2023-05-10T02:28:50.778Z,58.02
2023-05-10T02:31:19.249Z,58.00
2023-05-10T02:33:47.120Z,57.92
2023-05-10T02:36:16.196Z,58.03
2023-05-10T02:38:45.642Z,58.04
2023-05-10T02:41:14.140Z,58.11
2023-05-10T02:43:43.014Z,58.02
2023-05-10T02:46:10.296Z,58.10
2023-05-10T02:48:37.740Z,57.93
2023-05-10T02:51:08.480Z,57.93
2023-05-10T02:53:39.690Z,57.94
2023-05-10T02:56:16.338Z,58.09
2023-05-10T02:58:43.761Z,57.89
2023-05-10T03:01:11.182Z,57.86
2023-05-10T03:03:39.400Z,58.17
2023-05-10T03:06:06.799Z,58.27
2023-05-10T03:08:34.451Z,58.24
2023-05-10T03:11:01.665Z,58.27
2023-05-10T03:13:37.352Z,58.37
2023-05-10T03:16:13.346Z,58.38
2023-05-10T03:18:51.796Z,58.23
2023-05-10T03:21:22.748Z,58.31
2023-05-10T03:24:09.969Z,58.10
2023-05-10T03:26:39.990Z,58.31
2023-05-10T03:29:16.713Z,58.28
2023-05-10T03:31:44.274Z,58.33
2023-05-10T03:34:12.268Z,58.42
2023-05-10T03:36:39.727Z,58.36
2023-05-10T03:39:07.028Z,58.49
2023-05-10T03:41:34.974Z,58.02
2023-05-10T03:44:02.265Z,58.28
2023-05-10T03:46:29.860Z,58.25
2023-05-10T03:48:57.177Z,58.17
2023-05-10T03:51:28.985Z,58.20
2023-05-10T03:53:56.707Z,58.42
2023-05-10T03:56:24.406Z,58.40
2023-05-10T03:58:51.577Z,58.28
2023-05-10T04:01:18.915Z,58.10
2023-05-10T04:03:47.725Z,58.10
2023-05-10T04:06:15.149Z,58.30
2023-05-10T04:08:42.488Z,58.01
2023-05-10T04:11:13.882Z,58.20
2023-05-10T04:13:41.182Z,58.19
2023-05-10T04:16:08.529Z,58.11
2023-05-10T04:18:35.920Z,58.21
2023-05-10T04:21:03.541Z,58.05
2023-05-10T04:23:30.883Z,58.14
2023-05-10T04:26:02.339Z,57.98
2023-05-10T04:28:29.678Z,57.82
2023-05-10T04:31:08.185Z,58.14
2023-05-10T04:33:36.547Z,57.92
2023-05-10T04:36:04.437Z,57.96
2023-05-10T04:38:31.782Z,57.93
2023-05-10T04:41:09.894Z,58.02
2023-05-10T04:43:37.931Z,57.92
2023-05-10T04:46:06.310Z,57.90
2023-05-10T04:48:34.552Z,57.90
2023-05-10T04:51:02.215Z,57.70
2023-05-10T04:53:29.532Z,57.90
2023-05-10T04:55:56.902Z,58.03
2023-05-10T04:58:24.342Z,57.73
2023-05-10T05:00:51.616Z,57.80
2023-05-10T05:03:18.901Z,57.80
2023-05-10T05:05:46.328Z,57.79
2023-05-10T05:08:14.164Z,57.65
2023-05-10T05:10:41.423Z,57.74
2023-05-10T05:13:08.750Z,57.75
2023-05-10T05:15:36.185Z,57.97
2023-05-10T05:18:03.581Z,57.66
2023-05-10T05:20:33.919Z,57.84
2023-05-10T05:23:01.983Z,57.70
2023-05-10T05:25:29.416Z,57.72
2023-05-10T05:27:56.769Z,57.58
2023-05-10T05:30:23.976Z,57.85
2023-05-10T05:32:51.323Z,57.86
2023-05-10T05:35:19.864Z,57.77
2023-05-10T05:37:47.267Z,57.75
2023-05-10T05:40:15.143Z,57.37
2023-05-10T05:42:42.916Z,57.39
2023-05-10T05:45:14.199Z,57.57
2023-05-10T05:47:42.192Z,57.56
2023-05-10T05:50:10.062Z,57.50
2023-05-10T05:52:37.421Z,57.43
2023-05-10T05:55:05.002Z,57.27
2023-05-10T05:57:32.630Z,57.67
2023-05-10T06:00:00.570Z,57.57
2023-05-10T06:02:27.936Z,57.54
2023-05-10T06:04:55.319Z,57.80
2023-05-10T06:07:22.597Z,57.50
2023-05-10T06:09:49.930Z,57.76
2023-05-10T06:12:17.143Z,57.72
2023-05-10T06:14:44.350Z,57.57
2023-05-10T06:17:11.939Z,57.47
2023-05-10T06:19:39.330Z,57.64
2023-05-10T06:22:06.609Z,57.81
2023-05-10T06:24:33.937Z,57.78
2023-05-10T06:27:01.436Z,57.70
2023-05-10T06:29:28.781Z,57.81
2023-05-10T06:31:56.077Z,57.80
2023-05-10T06:34:23.365Z,57.84
2023-05-10T06:36:50.633Z,57.90
2023-05-10T06:39:17.962Z,57.54
2023-05-10T06:41:45.222Z,56.73
2023-05-10T06:44:12.548Z,56.39
2023-05-10T06:46:39.820Z,56.98
2023-05-10T06:49:07.117Z,55.84
2023-05-10T06:51:34.686Z,56.04
2023-05-10T06:54:02.927Z,56.09
2023-05-10T06:56:30.249Z,55.83
2023-05-10T06:58:57.536Z,56.00
2023-05-10T07:01:24.885Z,56.46
2023-05-10T07:03:52.226Z,56.72
2023-05-10T07:06:32.204Z,57.09
2023-05-10T07:09:01.381Z,57.30
2023-05-10T07:11:28.792Z,57.58
2023-05-10T07:13:56.071Z,57.67
2023-05-10T07:16:23.493Z,57.46
2023-05-10T07:18:51.706Z,57.32
2023-05-10T07:21:20.224Z,57.37
2023-05-10T07:23:47.569Z,57.59
2023-05-10T07:26:15.934Z,57.47
2023-05-10T07:28:43.210Z,57.52
2023-05-10T07:31:10.420Z,57.13
2023-05-10T07:33:37.671Z,57.27
2023-05-10T07:36:04.999Z,57.21
2023-05-10T07:38:32.274Z,57.08
2023-05-10T07:40:59.548Z,57.18
2023-05-10T07:43:26.860Z,57.08
2023-05-10T07:45:56.099Z,57.07
2023-05-10T07:48:23.802Z,57.14
2023-05-10T07:50:51.056Z,56.89
2023-05-10T07:53:19.580Z,57.17
2023-05-10T07:55:52.603Z,56.98
2023-05-10T07:58:19.928Z,57.10
2023-05-10T08:00:47.202Z,57.06
2023-05-10T08:03:14.833Z,57.04
2023-05-10T08:05:42.394Z,56.97
2023-05-10T08:08:09.739Z,56.98
2023-05-10T08:10:36.973Z,57.09
2023-05-10T08:13:04.315Z,57.00
2023-05-10T08:15:31.707Z,57.00
2023-05-10T08:17:58.963Z,56.87
2023-05-10T08:20:26.322Z,56.88
2023-05-10T08:22:53.952Z,56.62
2023-05-10T08:25:21.280Z,56.61
2023-05-10T08:27:48.490Z,56.69
2023-05-10T08:30:15.894Z,56.85
2023-05-10T08:32:43.268Z,56.70
2023-05-10T08:35:10.700Z,56.45
2023-05-10T08:37:38.028Z,55.82
2023-05-10T08:40:05.976Z,55.63
2023-05-10T08:42:37.185Z,56.37
2023-05-10T08:45:06.126Z,56.58
2023-05-10T08:47:33.980Z,56.80
2023-05-10T08:50:04.044Z,56.80
2023-05-10T08:52:33.017Z,56.79
2023-05-10T08:55:00.471Z,56.73
2023-05-10T08:57:27.808Z,56.63
2023-05-10T08:59:55.081Z,56.40
2023-05-10T09:02:24.211Z,56.12
2023-05-10T09:04:51.571Z,55.21
2023-05-10T09:07:20.285Z,54.91
2023-05-10T09:09:48.195Z,54.91
2023-05-10T09:12:17.318Z,55.75
2023-05-10T09:14:46.075Z,55.64
2023-05-10T09:17:13.849Z,55.83
2023-05-10T09:19:41.098Z,56.03
2023-05-10T09:22:08.390Z,56.13
2023-05-10T09:24:35.646Z,56.19
2023-05-10T09:27:02.885Z,55.93
2023-05-10T09:29:41.507Z,56.20
2023-05-10T09:32:08.856Z,56.15
2023-05-10T09:34:36.593Z,56.00
2023-05-10T09:37:05.496Z,56.05
2023-05-10T09:39:37.191Z,55.77
2023-05-10T09:42:10.050Z,55.75
2023-05-10T09:44:39.036Z,55.84
2023-05-10T09:47:06.358Z,55.77
2023-05-10T09:49:34.337Z,55.75
2023-05-10T09:52:06.729Z,55.49
2023-05-10T09:54:34.986Z,55.56
2023-05-10T09:57:02.851Z,55.57
2023-05-10T09:59:30.625Z,55.63
2023-05-10T10:02:00.502Z,55.52
2023-05-10T10:04:28.512Z,55.55
2023-05-10T10:07:03.897Z,55.55
2023-05-10T10:09:31.402Z,55.56
2023-05-10T10:11:58.855Z,55.46
2023-05-10T10:14:26.481Z,55.29
2023-05-10T10:17:06.666Z,55.55
2023-05-10T10:19:36.938Z,55.42
2023-05-10T10:22:04.559Z,55.42
2023-05-10T10:24:32.000Z,55.44
2023-05-10T10:27:10.056Z,55.24
2023-05-10T10:29:50.457Z,55.34
2023-05-10T10:32:49.948Z,55.28
2023-05-10T10:35:17.689Z,55.00
2023-05-10T10:37:46.974Z,55.18
2023-05-10T10:40:33.545Z,54.26
2023-05-10T10:43:25.058Z,52.68
2023-05-10T10:46:15.339Z,54.01
2023-05-10T10:48:49.246Z,54.60
2023-05-10T10:51:16.615Z,54.95
2023-05-10T10:53:44.395Z,54.74
2023-05-10T10:56:14.738Z,54.96
2023-05-10T10:58:42.594Z,54.75
2023-05-10T11:01:11.285Z,55.02
2023-05-10T11:03:39.152Z,54.92
2023-05-10T11:06:06.655Z,54.66
2023-05-10T11:08:38.134Z,54.46
2023-05-10T11:11:10.133Z,53.22
2023-05-10T11:13:44.861Z,53.35
2023-05-10T11:16:44.877Z,53.46
2023-05-10T11:19:14.233Z,53.86
2023-05-10T11:21:50.785Z,54.33
2023-05-10T11:24:20.240Z,54.48
2023-05-10T11:26:50.399Z,54.59
2023-05-10T11:29:17.876Z,54.43
2023-05-10T11:31:46.506Z,54.16
2023-05-10T11:34:32.289Z,54.10
2023-05-10T11:37:00.492Z,54.04
2023-05-10T11:39:29.342Z,54.30
2023-05-10T11:41:57.779Z,54.46
2023-05-10T11:44:31.095Z,54.32
2023-05-10T11:47:04.749Z,54.32
2023-05-10T11:49:32.156Z,54.55
2023-05-10T11:52:09.360Z,54.21
2023-05-10T11:54:36.964Z,54.32
2023-05-10T11:57:04.965Z,54.28
2023-05-10T11:59:32.394Z,54.20
2023-05-10T12:01:59.908Z,54.27
2023-05-10T12:04:28.791Z,54.42
2023-05-10T12:06:56.503Z,54.44
2023-05-10T12:09:39.671Z,54.52
2023-05-10T12:12:10.852Z,54.68
2023-05-10T12:14:38.227Z,54.51
2023-05-10T12:17:05.603Z,54.44
2023-05-10T12:19:39.692Z,54.36
2023-05-10T12:22:07.323Z,54.41
2023-05-10T12:24:39.067Z,54.33
2023-05-10T12:27:09.261Z,54.42
2023-05-10T12:29:37.700Z,54.43
2023-05-10T12:32:05.101Z,54.45
2023-05-10T12:34:37.165Z,54.46
2023-05-10T12:37:04.987Z,54.50
2023-05-10T12:39:58.639Z,54.42
2023-05-10T12:42:26.797Z,54.65
2023-05-10T12:45:03.653Z,54.71
2023-05-10T12:47:31.346Z,54.50
2023-05-10T12:49:58.620Z,54.57
2023-05-10T12:52:27.127Z,54.73
2023-05-10T12:54:54.586Z,54.64
2023-05-10T12:57:22.791Z,54.76
2023-05-10T12:59:50.141Z,54.83
2023-05-10T13:02:19.163Z,54.82
2023-05-10T13:04:48.854Z,54.88
2023-05-10T13:07:17.645Z,54.65
2023-05-10T13:09:44.932Z,54.86
2023-05-10T13:12:12.249Z,54.82
2023-05-10T13:14:41.474Z,54.85
2023-05-10T13:17:08.849Z,54.83
2023-05-10T13:19:36.314Z,54.82
2023-05-10T13:22:04.167Z,55.03
2023-05-10T13:24:31.430Z,55.01
2023-05-10T13:26:59.227Z,54.83
2023-05-10T13:29:26.729Z,55.04
2023-05-10T13:31:54.127Z,54.90
2023-05-10T13:34:21.703Z,54.99
2023-05-10T13:36:49.932Z,55.01
2023-05-10T13:39:17.274Z,54.97
2023-05-10T13:41:44.488Z,54.98
2023-05-10T13:44:14.580Z,55.01
2023-05-10T13:46:43.210Z,55.07
2023-05-10T13:49:10.953Z,54.92
2023-05-10T13:51:38.146Z,54.96
2023-05-10T13:54:05.864Z,55.12
2023-05-10T13:56:33.167Z,55.06
2023-05-10T13:59:00.477Z,55.12
2023-05-10T14:01:27.756Z,55.12
2023-05-10T14:03:55.172Z,55.13
2023-05-10T14:06:22.696Z,55.08
2023-05-10T14:08:50.015Z,55.13
2023-05-10T14:11:17.287Z,55.11
2023-05-10T14:13:44.619Z,55.14
2023-05-10T14:16:12.571Z,54.99
2023-05-10T14:18:39.879Z,55.02
2023-05-10T14:21:07.136Z,55.12
2023-05-10T14:23:34.518Z,54.96
2023-05-10T14:26:02.726Z,55.20
2023-05-10T14:28:30.202Z,55.11
2023-05-10T14:30:57.557Z,55.33
2023-05-10T14:33:24.891Z,55.27
2023-05-10T14:35:52.172Z,55.12
2023-05-10T14:38:19.419Z,55.15
2023-05-10T14:40:46.782Z,55.04
2023-05-10T14:43:14.050Z,55.12
2023-05-10T14:45:41.375Z,54.95
2023-05-10T14:48:12.239Z,55.08
2023-05-10T14:50:40.561Z,55.02
2023-05-10T14:53:08.013Z,55.06
2023-05-10T14:55:36.131Z,55.05
2023-05-10T14:58:03.859Z,55.39
2023-05-10T15:00:32.186Z,55.24
2023-05-10T15:02:59.833Z,55.24
2023-05-10T15:05:27.569Z,55.31
2023-05-10T15:07:55.235Z,55.43
2023-05-10T15:10:22.721Z,55.46
2023-05-10T15:12:50.025Z,55.74
2023-05-10T15:15:17.474Z,55.71
2023-05-10T15:17:44.969Z,55.73
2023-05-10T15:20:12.631Z,56.09
2023-05-10T15:22:39.978Z,55.98
2023-05-10T15:25:07.604Z,56.06
2023-05-10T15:27:36.542Z,55.82
2023-05-10T15:30:04.175Z,55.86
2023-05-10T15:32:31.545Z,55.79
2023-05-10T15:34:59.391Z,55.76
2023-05-10T15:37:26.900Z,55.56
2023-05-10T15:39:55.796Z,55.54
2023-05-10T15:42:24.203Z,55.91
2023-05-10T15:44:51.454Z,55.54
2023-05-10T15:47:18.674Z,55.67
2023-05-10T15:49:49.131Z,55.74
2023-05-10T15:52:16.850Z,55.53
2023-05-10T15:54:44.203Z,55.53
2023-05-10T15:57:11.523Z,55.43
2023-05-10T15:59:38.885Z,55.31
2023-05-10T16:02:07.782Z,55.49
2023-05-10T16:04:35.081Z,55.43
2023-05-10T16:07:02.541Z,55.35
2023-05-10T16:09:32.535Z,55.16
2023-05-10T16:12:00.113Z,55.44
2023-05-10T16:14:27.596Z,55.39
2023-05-10T16:16:55.069Z,55.39
2023-05-10T16:22:03.984Z,55.36
2023-05-10T16:24:31.311Z,55.33
2023-05-10T16:26:58.576Z,55.43
2023-05-10T16:29:26.278Z,55.47
2023-05-10T16:31:53.930Z,55.28
2023-05-10T16:34:24.266Z,55.34
2023-05-10T16:36:51.693Z,55.30
2023-05-10T16:39:19.078Z,55.35
2023-05-10T16:41:46.398Z,55.37
2023-05-10T16:44:13.672Z,55.41
2023-05-10T16:46:41.057Z,55.31
2023-05-10T16:49:08.927Z,55.44
2023-05-10T16:51:36.249Z,55.33
2023-05-10T16:54:03.570Z,55.35
2023-05-10T16:56:30.874Z,55.32
2023-05-10T16:58:58.109Z,55.70
2023-05-10T17:01:26.942Z,55.78
2023-05-10T17:03:54.857Z,55.88
2023-05-10T17:06:22.240Z,55.84
2023-05-10T17:08:49.567Z,56.06
2023-05-10T17:11:16.750Z,55.75
2023-05-10T17:13:44.084Z,55.74
2023-05-10T17:16:12.440Z,55.95
2023-05-10T17:18:41.694Z,56.13
2023-05-10T17:21:09.567Z,56.24
2023-05-10T17:23:36.980Z,56.74
2023-05-10T17:26:05.494Z,56.67
2023-05-10T17:28:32.852Z,57.05
2023-05-10T17:31:00.478Z,56.70
2023-05-10T17:33:27.861Z,57.04
2023-05-10T17:35:55.880Z,56.93
2023-05-10T17:38:23.094Z,57.63
2023-05-10T17:40:51.600Z,59.30
2023-05-10T17:43:18.915Z,58.67
2023-05-10T17:45:48.320Z,57.67
2023-05-10T17:48:15.590Z,57.77
2023-05-10T17:50:43.519Z,57.92
2023-05-10T17:53:11.097Z,57.53
2023-05-10T17:55:42.361Z,58.02
2023-05-10T17:58:12.585Z,59.14
2023-05-10T18:00:40.120Z,58.70
2023-05-10T18:03:07.452Z,58.97
2023-05-10T18:05:38.909Z,59.18
2023-05-10T18:08:07.328Z,59.28
2023-05-10T18:10:34.817Z,59.38
2023-05-10T18:13:02.587Z,59.12
2023-05-10T18:15:30.070Z,59.20
2023-05-10T18:17:57.450Z,60.02
2023-05-10T18:20:24.844Z,59.78
2023-05-10T18:22:52.096Z,59.82
2023-05-10T18:25:19.585Z,59.68
2023-05-10T18:27:47.627Z,59.37
2023-05-10T18:30:15.132Z,59.16
2023-05-10T18:32:43.035Z,59.40
2023-05-10T18:35:10.929Z,59.17
2023-05-10T18:37:41.599Z,60.05
2023-05-10T18:40:11.057Z,62.22
2023-05-10T18:42:38.388Z,62.98
2023-05-10T18:45:06.550Z,63.43
2023-05-10T18:47:33.988Z,63.47
2023-05-10T18:50:04.712Z,63.65
2023-05-10T18:52:32.105Z,63.84
2023-05-10T18:54:59.580Z,64.07
2023-05-10T18:57:27.209Z,63.75
2023-05-10T18:59:55.087Z,64.31
2023-05-10T19:02:22.538Z,64.01
2023-05-10T19:04:49.885Z,64.14
2023-05-10T19:07:18.145Z,64.18
2023-05-10T19:09:45.527Z,63.86
2023-05-10T19:12:13.130Z,63.75
2023-05-10T19:14:40.714Z,63.36
2023-05-10T19:17:08.286Z,63.12
2023-05-10T19:19:36.378Z,63.20
2023-05-10T19:22:07.229Z,62.83
2023-05-10T19:24:37.411Z,62.79
2023-05-10T19:27:05.682Z,62.95
2023-05-10T19:29:33.409Z,63.22
2023-05-10T19:32:01.384Z,63.40
2023-05-10T19:34:30.491Z,63.75
2023-05-10T19:36:59.240Z,63.80
2023-05-10T19:39:31.151Z,63.92
2023-05-10T19:42:01.047Z,63.93
2023-05-10T19:44:29.369Z,63.88
2023-05-10T19:46:57.673Z,63.43
2023-05-10T19:49:27.907Z,63.22
2023-05-10T19:51:56.376Z,63.46
2023-05-10T19:54:24.350Z,63.43
2023-05-10T19:56:51.983Z,63.43
2023-05-10T19:59:20.625Z,63.15
2023-05-10T20:01:48.130Z,62.97
2023-05-10T20:04:15.851Z,63.16
2023-05-10T20:06:43.421Z,63.05
2023-05-10T20:09:10.922Z,63.73
2023-05-10T20:11:38.170Z,62.76
2023-05-10T20:14:05.750Z,62.75
2023-05-10T20:16:33.330Z,62.39
2023-05-10T20:19:01.245Z,63.02
2023-05-10T20:21:32.198Z,63.57
2023-05-10T20:23:59.864Z,63.22
2023-05-10T20:26:27.106Z,64.04
2023-05-10T20:28:55.246Z,63.97
2023-05-10T20:31:24.604Z,63.90
2023-05-10T20:33:52.664Z,63.62
2023-05-10T20:36:20.751Z,64.01
2023-05-10T20:38:48.342Z,64.39
2023-05-10T20:41:15.854Z,64.15
2023-05-10T20:43:44.134Z,62.31
2023-05-10T20:46:12.176Z,63.49
2023-05-10T20:48:39.780Z,63.52
2023-05-10T20:51:07.529Z,64.02
2023-05-10T20:53:35.831Z,63.85
2023-05-10T20:56:03.321Z,64.07
2023-05-10T20:58:30.805Z,63.33
2023-05-10T21:00:58.207Z,62.96
2023-05-10T21:03:25.482Z,62.83
2023-05-10T21:05:52.704Z,62.49
2023-05-10T21:08:19.937Z,62.28
2023-05-10T21:10:47.377Z,62.85
2023-05-10T21:13:15.034Z,62.72
2023-05-10T21:15:42.400Z,59.99
2023-05-10T21:18:09.647Z,59.26
2023-05-10T21:20:36.960Z,58.76
2023-05-10T21:23:04.335Z,58.31
2023-05-10T21:25:31.704Z,58.61
2023-05-10T21:27:58.880Z,58.22
2023-05-10T21:30:26.490Z,59.07
2023-05-10T21:32:55.248Z,58.34
2023-05-10T21:35:22.577Z,58.85
2023-05-10T21:37:49.843Z,58.58
2023-05-10T21:40:17.687Z,59.58
2023-05-10T21:42:49.341Z,58.54
2023-05-10T21:45:17.221Z,58.29
2023-05-10T21:47:44.555Z,58.19
2023-05-10T21:50:12.427Z,58.00
2023-05-10T21:52:39.731Z,58.39
2023-05-10T21:55:08.664Z,58.96
2023-05-10T21:57:36.642Z,58.50
2023-05-10T22:00:04.916Z,58.31
2023-05-10T22:02:32.201Z,58.21
2023-05-10T22:05:01.609Z,58.08
2023-05-10T22:07:30.358Z,58.44
2023-05-10T22:09:57.618Z,58.25
2023-05-10T22:12:26.003Z,58.21
2023-05-10T22:15:06.337Z,58.83
2023-05-10T22:17:38.674Z,58.40
2023-05-10T22:20:08.361Z,58.35
2023-05-10T22:22:36.784Z,58.04
2023-05-10T22:25:06.645Z,57.99
2023-05-10T22:27:35.297Z,58.20
2023-05-10T22:30:03.722Z,57.95
2023-05-10T22:32:31.616Z,58.56
2023-05-10T22:34:59.057Z,58.47
2023-05-10T22:37:26.296Z,60.83
2023-05-10T22:39:53.719Z,58.80
2023-05-10T22:42:21.060Z,58.84
2023-05-10T22:44:48.365Z,59.43
2023-05-10T22:47:16.515Z,59.23
2023-05-10T22:49:43.723Z,58.95
2023-05-10T22:52:11.053Z,58.62
2023-05-10T22:54:38.338Z,58.66
2023-05-10T22:57:06.084Z,58.60
2023-05-10T22:59:33.669Z,58.66
2023-05-10T23:02:01.080Z,58.45
2023-05-10T23:04:28.621Z,58.51
2023-05-10T23:06:55.969Z,58.42
2023-05-10T23:09:23.850Z,58.61
2023-05-10T23:11:51.126Z,58.62
2023-05-10T23:14:18.405Z,58.60
2023-05-10T23:16:45.767Z,58.71
2023-05-10T23:19:13.064Z,58.76
2023-05-10T23:21:40.912Z,58.40
2023-05-10T23:24:08.636Z,58.98
2023-05-10T23:26:36.298Z,58.88
2023-05-10T23:29:03.592Z,59.11
2023-05-10T23:31:30.901Z,59.11
2023-05-10T23:33:58.245Z,59.17
2023-05-10T23:36:25.819Z,58.81
2023-05-10T23:38:53.138Z,59.00
2023-05-10T23:41:20.515Z,58.97
2023-05-10T23:43:47.711Z,59.14
2023-05-10T23:46:14.962Z,59.40
2023-05-10T23:48:42.232Z,58.67
2023-05-10T23:51:09.547Z,58.99
2023-05-10T23:53:37.776Z,58.70
2023-05-10T23:56:05.280Z,59.24
2023-05-10T23:58:32.536Z,59.11
